Time;durP1;ratioP1;P1;durP2;ratioP2;P2;SDS_P1;SDS_P2;PMS_P1;PMS_P2;Temp;Humidity;BMP_temperature;BMP_pressure;BME280_temperature;BME280_humidity;BME280_pressure;Samples;Min_cycle;Max_cycle;Signal;HPM_P1;HPM_P2
2022/10/21 00:01:24;;;;;;;4.83;4.37;;;16.80;70.20;17.00;96413.00;;;;5049185;28;20634;-85
2022/10/21 00:03:51;;;;;;;4.00;3.70;;;16.80;70.20;17.00;96399.00;;;;5053444;28;20268;-85
2022/10/21 00:06:18;;;;;;;4.23;3.73;;;16.80;70.20;17.00;96396.00;;;;5050795;28;20196;-85
2022/10/21 00:08:45;;;;;;;4.43;4.07;;;16.80;70.20;17.00;96415.00;;;;5052235;28;20214;-85
2022/10/21 00:11:14;;;;;;;4.63;4.23;;;16.80;70.10;17.00;96408.00;;;;5051635;28;20227;-84
2022/10/21 00:13:41;;;;;;;5.70;5.20;;;16.80;70.20;17.00;96409.00;;;;5050921;28;20283;-84
2022/10/21 00:16:11;;;;;;;5.23;4.30;;;16.80;70.20;16.90;96404.00;;;;5049805;28;20189;-85
2022/10/21 00:18:40;;;;;;;5.27;4.77;;;16.70;70.10;16.90;96398.00;;;;5049592;28;20213;-85
2022/10/21 00:21:09;;;;;;;5.97;4.30;;;16.70;70.20;16.90;96385.00;;;;5052346;28;20207;-85
2022/10/21 00:23:36;;;;;;;4.63;4.27;;;16.70;70.20;16.90;96389.00;;;;5051628;28;20211;-85
2022/10/21 00:26:04;;;;;;;4.47;3.90;;;16.70;70.30;16.90;96396.00;;;;5050435;28;20288;-85
2022/10/21 00:28:33;;;;;;;4.23;3.83;;;16.70;70.50;16.90;96402.00;;;;5052751;28;20213;-84
2022/10/21 00:31:00;;;;;;;4.97;4.47;;;16.70;70.50;16.90;96394.00;;;;5052105;28;20251;-85
2022/10/21 00:33:29;;;;;;;6.63;4.57;;;16.70;70.50;16.90;96390.00;;;;5049040;28;20576;-85
2022/10/21 00:36:00;;;;;;;5.40;4.60;;;16.70;70.50;16.90;96397.00;;;;5051578;28;20200;-85
2022/10/21 00:38:27;;;;;;;4.90;4.50;;;16.70;70.50;16.90;96406.00;;;;5050275;28;20228;-85
2022/10/21 00:40:55;;;;;;;5.67;5.07;;;16.70;70.60;16.90;96412.00;;;;5047241;28;20212;-85
2022/10/21 00:43:22;;;;;;;6.97;5.00;;;16.70;70.70;16.90;96414.00;;;;5050707;28;20222;-85
2022/10/21 00:45:55;;;;;;;5.13;4.70;;;16.70;70.70;16.90;96414.00;;;;5050217;28;20278;-85
2022/10/21 00:48:38;;;;;;;4.97;4.50;;;16.70;70.60;16.90;96407.00;;;;5049424;28;20299;-85
2022/10/21 00:51:09;;;;;;;5.57;5.07;;;16.70;70.50;16.90;96391.00;;;;5051205;28;20318;-84
2022/10/21 00:53:42;;;;;;;5.40;4.87;;;16.70;70.40;16.90;96395.00;;;;5051788;28;20740;-85
2022/10/21 00:56:13;;;;;;;5.40;4.97;;;16.70;70.50;16.90;96394.00;;;;5044716;28;20205;-85
2022/10/21 00:58:41;;;;;;;5.30;4.90;;;16.70;70.50;16.90;96398.00;;;;5051449;28;20605;-85
2022/10/21 01:01:10;;;;;;;5.00;4.50;;;16.70;70.50;17.00;96399.00;;;;5048459;28;20312;-85
2022/10/21 01:03:37;;;;;;;5.70;5.20;;;16.70;70.80;17.00;96408.00;;;;5049510;28;20668;-85
2022/10/21 01:06:09;;;;;;;5.10;4.60;;;16.70;70.80;17.00;96405.00;;;;5048637;28;20279;-85
2022/10/21 01:08:37;;;;;;;4.97;4.47;;;16.70;70.80;17.00;96395.00;;;;5049799;28;20219;-85
2022/10/21 01:11:10;;;;;;;5.00;4.57;;;16.70;70.80;17.00;96384.00;;;;5046498;28;20216;-84
2022/10/21 01:13:50;;;;;;;4.87;4.57;;;16.70;70.80;17.00;96379.00;;;;5046443;28;20642;-85
2022/10/21 01:16:28;;;;;;;4.60;4.20;;;16.70;70.90;17.10;96381.00;;;;5047987;28;20685;-85
2022/10/21 01:19:03;;;;;;;5.00;4.50;;;16.80;71.10;17.10;96378.00;;;;5049797;28;20230;-85
2022/10/21 01:21:37;;;;;;;4.23;3.83;;;16.80;71.20;17.10;96386.00;;;;5049763;28;20234;-85
2022/10/21 01:24:58;;;;;;;4.97;4.50;;;16.80;71.20;17.10;96377.00;;;;5044440;28;20232;-84
2022/10/21 01:27:42;;;;;;;4.63;3.93;;;16.80;71.40;17.10;96377.00;;;;5003744;28;20198;-85
2022/10/21 01:30:38;;;;;;;4.20;3.70;;;16.80;71.10;17.10;96373.00;;;;5044602;28;20700;-85
2022/10/21 01:33:39;;;;;;;3.90;3.60;;;16.80;71.30;17.10;96370.00;;;;5047517;28;21685;-85
2022/10/21 01:36:30;;;;;;;4.90;4.50;;;16.80;71.10;17.10;96376.00;;;;5046281;28;20853;-85
2022/10/21 01:39:22;;;;;;;4.20;3.90;;;16.80;71.00;17.10;96372.00;;;;5048354;28;20670;-85
2022/10/21 01:42:02;;;;;;;4.50;4.10;;;16.80;71.30;17.10;96378.00;;;;5047548;28;20283;-85
2022/10/21 01:44:38;;;;;;;5.20;4.70;;;16.80;71.30;17.10;96363.00;;;;5047868;28;20196;-85
2022/10/21 01:47:15;;;;;;;4.07;3.77;;;16.80;71.20;17.10;96366.00;;;;5049148;28;20198;-84
2022/10/21 01:49:48;;;;;;;5.00;4.60;;;16.80;71.20;17.10;96352.00;;;;5049214;28;20230;-85
2022/10/21 01:52:17;;;;;;;4.93;4.30;;;16.80;71.40;17.10;96347.00;;;;5046090;28;20196;-84
2022/10/21 01:54:52;;;;;;;5.37;4.40;;;16.80;71.40;17.10;96354.00;;;;5046025;28;20203;-84
2022/10/21 01:57:24;;;;;;;5.03;4.47;;;16.80;71.40;17.10;96343.00;;;;5045150;28;20279;-85
2022/10/21 01:59:53;;;;;;;4.60;4.20;;;16.80;71.40;17.10;96333.00;;;;5047769;28;20217;-84
2022/10/21 02:02:27;;;;;;;5.83;5.00;;;16.80;71.40;17.10;96336.00;;;;5049554;28;20224;-85
2022/10/21 02:04:56;;;;;;;4.40;4.10;;;16.80;71.50;17.10;96339.00;;;;5048974;28;20199;-84
2022/10/21 02:07:24;;;;;;;4.47;4.07;;;16.80;71.60;17.10;96337.00;;;;5047396;28;20200;-85
2022/10/21 02:09:51;;;;;;;4.87;4.30;;;16.80;71.60;17.10;96332.00;;;;5049907;28;20307;-85
2022/10/21 02:12:18;;;;;;;6.93;4.80;;;16.80;72.30;17.10;96321.00;;;;5050620;28;20324;-85
2022/10/21 02:14:50;;;;;;;4.83;4.20;;;16.80;71.60;17.10;96323.00;;;;5049570;28;20221;-85
2022/10/21 02:17:27;;;;;;;4.77;4.37;;;16.80;71.60;17.10;96324.00;;;;5048649;28;20196;-85
2022/10/21 02:19:59;;;;;;;5.30;4.77;;;16.80;71.60;17.10;96319.00;;;;5049329;28;20304;-85
2022/10/21 02:22:28;;;;;;;6.03;5.13;;;16.80;71.60;17.10;96318.00;;;;5050732;28;20205;-84
2022/10/21 02:25:02;;;;;;;6.17;5.40;;;16.80;71.50;17.10;96317.00;;;;5050065;28;20350;-85
2022/10/21 02:27:29;;;;;;;6.17;5.00;;;16.80;71.50;17.10;96330.00;;;;5050088;28;20288;-85
2022/10/21 02:29:59;;;;;;;5.87;5.37;;;16.80;72.00;17.10;96324.00;;;;5048697;28;20223;-85
2022/10/21 02:32:37;;;;;;;5.70;5.20;;;16.80;71.60;17.10;96329.00;;;;5049934;28;20684;-85
2022/10/21 02:35:19;;;;;;;7.17;5.50;;;16.80;72.10;17.10;96319.00;;;;5050265;28;20546;-85
2022/10/21 02:37:58;;;;;;;6.00;5.40;;;16.80;71.40;17.10;96314.00;;;;5050732;28;20219;-85
2022/10/21 02:40:33;;;;;;;5.77;5.27;;;16.80;71.40;17.10;96305.00;;;;5047486;28;20307;-85
2022/10/21 02:43:06;;;;;;;5.90;5.50;;;16.80;71.40;17.10;96303.00;;;;5050793;28;20191;-85
2022/10/21 02:45:34;;;;;;;6.17;5.67;;;16.80;71.50;17.10;96302.00;;;;5047221;28;20197;-84
2022/10/21 02:48:03;;;;;;;5.70;5.30;;;16.80;71.40;17.10;96302.00;;;;5048700;28;20291;-85
2022/10/21 02:50:30;;;;;;;5.97;5.47;;;16.80;71.50;17.10;96295.00;;;;5050467;28;20224;-85
2022/10/21 02:52:58;;;;;;;6.40;5.80;;;16.80;72.30;17.10;96297.00;;;;5050731;28;20228;-84
2022/10/21 02:55:25;;;;;;;5.57;5.07;;;16.80;71.70;17.10;96295.00;;;;5048897;28;20672;-83
2022/10/21 02:57:52;;;;;;;6.23;5.63;;;16.80;71.60;17.10;96298.00;;;;5049469;28;20197;-85
2022/10/21 03:00:19;;;;;;;5.23;4.83;;;16.80;71.60;17.10;96294.00;;;;5050185;28;20646;-85
2022/10/21 03:02:46;;;;;;;5.57;5.07;;;16.80;71.50;17.00;96291.00;;;;5049111;28;20197;-85
2022/10/21 03:05:15;;;;;;;7.67;5.27;;;16.80;71.60;17.10;96296.00;;;;5049100;28;20300;-85
2022/10/21 03:07:42;;;;;;;5.63;5.10;;;16.80;71.60;17.10;96287.00;;;;5049189;28;20201;-85
2022/10/21 03:10:09;;;;;;;6.00;5.50;;;16.80;71.70;17.00;96286.00;;;;5046873;28;20197;-85
2022/10/21 03:12:36;;;;;;;6.67;5.60;;;16.80;71.70;17.00;96279.00;;;;5047817;28;20193;-85
2022/10/21 03:15:04;;;;;;;5.43;5.03;;;16.80;71.70;17.00;96280.00;;;;5038837;28;20193;-85
2022/10/21 03:17:31;;;;;;;6.03;5.53;;;16.70;71.70;17.00;96276.00;;;;5047051;28;20654;-85
2022/10/21 03:19:58;;;;;;;6.37;5.67;;;16.70;71.70;17.00;96275.00;;;;5045183;28;20686;-85
2022/10/21 03:22:27;;;;;;;5.93;5.40;;;16.70;71.70;17.00;96274.00;;;;5047856;28;20204;-85
2022/10/21 03:24:54;;;;;;;5.80;5.30;;;16.70;71.80;17.00;96284.00;;;;5048324;28;20197;-85
2022/10/21 03:27:21;;;;;;;5.93;5.47;;;16.70;71.90;17.00;96281.00;;;;5048534;28;20220;-85
2022/10/21 03:29:48;;;;;;;5.73;5.23;;;16.70;71.80;17.00;96286.00;;;;5051959;28;20303;-85
2022/10/21 03:32:15;;;;;;;5.80;5.20;;;16.70;71.90;17.00;96278.00;;;;5054524;28;20224;-84
2022/10/21 03:34:42;;;;;;;5.77;5.27;;;16.70;71.90;17.00;96268.00;;;;5054178;28;20222;-85
2022/10/21 03:37:09;;;;;;;6.23;5.73;;;16.70;71.90;17.00;96269.00;;;;5054299;28;20741;-84
2022/10/21 03:39:37;;;;;;;6.50;5.70;;;16.70;72.00;17.00;96264.00;;;;5053770;28;20320;-84
2022/10/21 03:42:04;;;;;;;6.80;6.10;;;16.70;72.20;17.00;96268.00;;;;5053815;28;20197;-85
2022/10/21 03:44:31;;;;;;;5.40;4.97;;;16.70;72.20;17.00;96254.00;;;;5053544;28;20247;-85
2022/10/21 03:46:59;;;;;;;7.57;5.57;;;16.70;72.20;17.00;96264.00;;;;5053851;28;20255;-85
2022/10/21 03:49:26;;;;;;;6.00;5.50;;;16.70;72.20;17.00;96262.00;;;;5053379;28;20565;-85
2022/10/21 03:51:53;;;;;;;6.13;5.53;;;16.70;72.10;17.00;96265.00;;;;5053482;28;20764;-84
2022/10/21 03:54:20;;;;;;;6.67;6.00;;;16.70;72.10;17.00;96261.00;;;;5053048;28;20207;-83
2022/10/21 03:56:49;;;;;;;6.23;5.57;;;16.70;72.10;17.00;96248.00;;;;5053668;28;20283;-85
2022/10/21 03:59:16;;;;;;;6.20;5.70;;;16.70;72.10;17.00;96249.00;;;;5053568;28;20593;-85
2022/10/21 04:01:43;;;;;;;6.03;5.50;;;16.70;72.20;17.00;96254.00;;;;5051995;28;20287;-85
2022/10/21 04:04:10;;;;;;;6.43;5.83;;;16.70;72.30;17.00;96244.00;;;;5052748;28;20197;-85
2022/10/21 04:06:37;;;;;;;6.43;5.83;;;16.70;72.20;17.00;96228.00;;;;5052582;28;20283;-84
2022/10/21 04:09:04;;;;;;;6.07;5.57;;;16.70;72.10;17.00;96232.00;;;;5053683;28;20303;-85
2022/10/21 04:11:31;;;;;;;6.00;5.50;;;16.70;72.20;17.00;96239.00;;;;5053289;28;20234;-84
2022/10/21 04:14:00;;;;;;;6.30;5.80;;;16.70;72.30;17.00;96238.00;;;;5053666;28;20288;-84
2022/10/21 04:16:27;;;;;;;6.33;5.60;;;16.70;72.30;17.00;96234.00;;;;5052151;28;20290;-85
2022/10/21 04:18:54;;;;;;;6.63;6.13;;;16.70;72.20;17.00;96221.00;;;;5053057;28;20266;-86
2022/10/21 04:21:21;;;;;;;6.87;6.20;;;16.70;72.10;17.00;96228.00;;;;5052674;28;20200;-85
2022/10/21 04:23:48;;;;;;;6.17;5.63;;;16.70;72.20;17.00;96221.00;;;;5053434;28;20508;-85
2022/10/21 04:26:15;;;;;;;6.10;5.60;;;16.70;72.10;17.00;96217.00;;;;5052502;28;20562;-85
2022/10/21 04:28:42;;;;;;;5.90;5.40;;;16.70;72.10;17.00;96211.00;;;;5052886;28;20303;-85
2022/10/21 04:31:11;;;;;;;6.13;5.50;;;16.70;72.10;17.00;96214.00;;;;5052859;28;20653;-85
2022/10/21 04:33:38;;;;;;;6.50;5.97;;;16.70;72.10;17.00;96217.00;;;;5051607;28;20293;-85
2022/10/21 04:36:06;;;;;;;5.70;5.17;;;16.80;72.10;17.00;96200.00;;;;5050482;28;20597;-85
2022/10/21 04:38:33;;;;;;;6.63;5.83;;;16.70;72.00;17.00;96184.00;;;;5045232;28;20319;-84
2022/10/21 04:41:03;;;;;;;6.67;6.13;;;16.70;72.00;16.90;96178.00;;;;5052537;28;20209;-85
2022/10/21 04:43:30;;;;;;;5.80;5.27;;;16.70;72.00;16.90;96176.00;;;;5052110;28;20200;-85
2022/10/21 04:45:57;;;;;;;6.37;5.83;;;16.70;72.00;16.90;96179.00;;;;5052661;28;20197;-85
2022/10/21 04:48:26;;;;;;;5.90;5.40;;;16.70;72.00;16.90;96169.00;;;;5052919;28;20220;-85
2022/10/21 04:50:54;;;;;;;8.10;5.90;;;16.70;72.00;16.80;96166.00;;;;5052483;28;20323;-87
2022/10/21 04:53:22;;;;;;;6.47;5.80;;;16.60;72.00;16.80;96165.00;;;;5053135;28;20197;-87
2022/10/21 04:55:52;;;;;;;5.87;5.37;;;16.60;71.90;16.80;96171.00;;;;5052585;28;20200;-86
2022/10/21 04:58:20;;;;;;;6.23;5.70;;;16.60;71.90;16.80;96175.00;;;;5053210;28;20247;-84
2022/10/21 05:00:47;;;;;;;6.67;6.03;;;16.60;71.80;16.80;96157.00;;;;5052558;28;20203;-86
2022/10/21 05:03:14;;;;;;;6.23;5.63;;;16.60;71.80;16.80;96124.00;;;;5053039;28;20287;-84
2022/10/21 05:05:42;;;;;;;5.83;5.33;;;16.60;71.70;16.80;96130.00;;;;5052223;28;20218;-86
2022/10/21 05:08:10;;;;;;;7.77;5.93;;;16.50;71.70;16.80;96137.00;;;;5052945;28;20221;-86
2022/10/21 05:10:37;;;;;;;5.93;5.43;;;16.50;71.70;16.70;96149.00;;;;5052639;28;20232;-86
2022/10/21 05:13:04;;;;;;;5.80;5.30;;;16.50;71.70;16.70;96147.00;;;;5046404;28;20284;-85
2022/10/21 05:15:33;;;;;;;5.30;4.93;;;16.50;71.70;16.70;96153.00;;;;5049394;28;20620;-86
2022/10/21 05:18:00;;;;;;;5.90;5.37;;;16.40;71.80;16.70;96148.00;;;;5052612;28;20284;-86
2022/10/21 05:20:28;;;;;;;6.40;5.63;;;16.40;71.80;16.70;96139.00;;;;5052681;28;20224;-84
2022/10/21 05:22:56;;;;;;;6.90;6.20;;;16.40;71.80;16.60;96141.00;;;;5051610;28;20239;-85
2022/10/21 05:25:24;;;;;;;6.53;5.93;;;16.40;71.80;16.60;96140.00;;;;5050085;28;20204;-86
2022/10/21 05:27:51;;;;;;;5.77;5.27;;;16.40;71.80;16.60;96136.00;;;;5042269;28;20560;-85
2022/10/21 05:30:18;;;;;;;6.03;5.53;;;16.30;71.80;16.60;96135.00;;;;5049309;28;20243;-85
2022/10/21 05:32:45;;;;;;;6.03;5.37;;;16.30;71.80;16.50;96128.00;;;;5050773;28;20234;-86
2022/10/21 05:35:12;;;;;;;6.07;5.47;;;16.30;71.70;16.50;96132.00;;;;5049404;28;20292;-85
2022/10/21 05:37:39;;;;;;;5.73;5.23;;;16.30;71.70;16.50;96132.00;;;;5051375;28;20689;-85
2022/10/21 05:40:09;;;;;;;6.73;6.13;;;16.20;71.70;16.50;96131.00;;;;5075251;22;20310;-87
2022/10/21 05:42:37;;;;;;;6.10;5.60;;;16.20;71.70;16.40;96136.00;;;;5047350;28;20260;-85
2022/10/21 05:45:05;;;;;;;6.30;5.53;;;16.20;71.70;16.40;96136.00;;;;5035299;28;20228;-85
2022/10/21 05:47:39;;;;;;;6.37;5.77;;;16.10;71.80;16.40;96131.00;;;;5024806;28;20264;-85
2022/10/21 05:50:14;;;;;;;8.87;5.80;;;16.10;71.90;16.40;96136.00;;;;5031812;28;20716;-84
2022/10/21 05:52:42;;;;;;;6.47;5.80;;;16.10;72.10;16.40;96138.00;;;;5027322;28;20271;-86
2022/10/21 05:55:13;;;;;;;5.87;5.30;;;16.10;72.20;16.30;96136.00;;;;5026816;28;20201;-85
2022/10/21 05:57:41;;;;;;;6.53;5.93;;;16.00;72.40;16.30;96143.00;;;;5032454;28;20225;-85
2022/10/21 06:00:10;;;;;;;7.00;6.10;;;16.00;72.40;16.30;96140.00;;;;5028230;28;20204;-85
2022/10/21 06:02:40;;;;;;;6.67;5.97;;;16.00;72.60;16.40;96134.00;;;;5031451;28;20237;-87
2022/10/21 06:05:10;;;;;;;6.40;5.57;;;16.00;72.80;16.40;96136.00;;;;5030420;28;20193;-86
2022/10/21 06:07:37;;;;;;;8.47;6.20;;;16.00;72.90;16.30;96139.00;;;;5029930;28;20189;-85
2022/10/21 06:10:08;;;;;;;6.03;5.53;;;16.00;72.90;16.40;96140.00;;;;5030637;28;20262;-85
2022/10/21 06:12:37;;;;;;;6.23;5.63;;;16.00;73.00;16.40;96140.00;;;;5030406;28;21041;-86
2022/10/21 06:15:05;;;;;;;6.60;5.83;;;16.00;73.20;16.40;96135.00;;;;5030764;28;20289;-85
2022/10/21 06:17:35;;;;;;;7.03;6.00;;;16.00;73.30;16.40;96135.00;;;;5015072;28;20626;-85
2022/10/21 06:20:02;;;;;;;6.37;5.77;;;16.00;73.40;16.40;96142.00;;;;5029623;28;20705;-86
2022/10/21 06:22:29;;;;;;;9.07;6.23;;;16.00;73.50;16.40;96145.00;;;;5031338;28;20251;-85
2022/10/21 06:24:58;;;;;;;7.93;5.43;;;16.00;73.50;16.40;96148.00;;;;5028054;28;20309;-85
2022/10/21 06:27:26;;;;;;;6.80;6.17;;;16.00;73.50;16.40;96128.00;;;;5030229;28;20202;-85
2022/10/21 06:29:54;;;;;;;6.83;6.13;;;16.10;73.70;16.50;96133.00;;;;5030821;28;20255;-85
2022/10/21 06:32:23;;;;;;;7.37;6.17;;;16.10;73.80;16.50;96135.00;;;;5031502;28;20573;-85
2022/10/21 06:34:50;;;;;;;6.90;6.30;;;16.10;73.80;16.50;96134.00;;;;5031073;28;20255;-86
2022/10/21 06:37:20;;;;;;;7.13;5.97;;;16.10;73.80;16.50;96129.00;;;;5031989;28;20233;-86
2022/10/21 06:39:47;;;;;;;7.27;6.13;;;16.10;73.90;16.60;96136.00;;;;5025852;28;20670;-85
2022/10/21 06:42:14;;;;;;;6.33;5.73;;;16.20;74.10;16.60;96132.00;;;;5031423;28;20224;-85
2022/10/21 06:44:44;;;;;;;6.27;5.77;;;16.20;74.10;16.60;96130.00;;;;5024415;28;20227;-85
2022/10/21 06:47:16;;;;;;;6.87;6.17;;;16.20;74.10;16.70;96139.00;;;;5034362;28;20256;-85
2022/10/21 06:49:49;;;;;;;6.40;5.90;;;16.20;74.10;16.70;96138.00;;;;5031733;28;20287;-86
2022/10/21 06:52:16;;;;;;;6.50;5.90;;;16.30;74.20;16.70;96142.00;;;;5027135;28;20244;-85
2022/10/21 06:54:45;;;;;;;6.70;6.10;;;16.30;74.10;16.80;96142.00;;;;5031204;28;20564;-85
2022/10/21 06:57:16;;;;;;;6.53;5.93;;;16.30;74.10;16.80;96139.00;;;;5039178;28;20288;-85
2022/10/21 06:59:45;;;;;;;6.30;5.80;;;16.40;74.10;16.80;96131.00;;;;5030704;28;20229;-87
2022/10/21 07:02:13;;;;;;;6.77;6.17;;;16.40;74.00;16.90;96124.00;;;;5039265;28;20220;-85
2022/10/21 07:04:44;;;;;;;6.37;5.87;;;16.40;74.00;16.90;96127.00;;;;5027951;28;20201;-85
2022/10/21 07:07:15;;;;;;;6.70;6.10;;;16.50;74.00;16.90;96124.00;;;;5032505;28;20201;-86
2022/10/21 07:09:42;;;;;;;6.40;5.80;;;16.50;74.10;16.90;96117.00;;;;5038504;28;20283;-85
2022/10/21 07:12:10;;;;;;;6.60;6.00;;;16.50;74.00;16.90;96113.00;;;;5033553;28;20694;-85
2022/10/21 07:14:45;;;;;;;7.20;6.03;;;16.50;74.00;17.00;96107.00;;;;5039354;28;20224;-85
2022/10/21 07:17:13;;;;;;;6.53;5.93;;;16.50;74.00;17.00;96110.00;;;;5035145;28;20304;-85
2022/10/21 07:19:40;;;;;;;6.43;5.87;;;16.60;74.00;17.00;96096.00;;;;5034841;28;20205;-85
2022/10/21 07:22:08;;;;;;;7.53;6.33;;;16.60;74.10;17.00;96106.00;;;;5034627;28;20201;-86
2022/10/21 07:24:38;;;;;;;7.67;6.87;;;16.60;74.10;17.10;96112.00;;;;5034463;28;20644;-85
2022/10/21 07:27:06;;;;;;;6.37;5.77;;;16.60;74.00;17.10;96110.00;;;;5034628;28;20236;-85
2022/10/21 07:29:33;;;;;;;6.53;5.83;;;16.70;74.10;17.10;96105.00;;;;5035070;28;20202;-85
2022/10/21 07:32:00;;;;;;;6.63;6.03;;;16.70;74.10;17.10;96088.00;;;;5033955;28;20229;-85
2022/10/21 07:34:29;;;;;;;6.70;5.67;;;16.70;74.10;17.20;96092.00;;;;5034792;28;20209;-85
2022/10/21 07:36:56;;;;;;;6.03;5.40;;;16.70;74.20;17.20;96086.00;;;;5030705;28;20288;-86
2022/10/21 07:39:27;;;;;;;6.50;5.90;;;16.80;74.20;17.30;96087.00;;;;5030537;28;20788;-85
2022/10/21 07:42:00;;;;;;;11.33;7.50;;;16.80;74.30;17.30;96085.00;;;;5030983;28;20298;-85
2022/10/21 07:44:27;;;;;;;7.30;5.43;;;16.80;74.20;17.30;96078.00;;;;5034801;28;20205;-85
2022/10/21 07:46:55;;;;;;;6.13;5.60;;;16.80;74.10;17.30;96078.00;;;;5034744;28;20235;-87
2022/10/21 07:49:28;;;;;;;5.87;5.37;;;16.90;74.70;17.40;96086.00;;;;5034718;28;20287;-87
2022/10/21 07:51:56;;;;;;;6.47;5.87;;;16.90;74.30;17.40;96078.00;;;;5034010;28;20244;-85
2022/10/21 07:54:23;;;;;;;6.83;5.70;;;16.90;74.20;17.50;96079.00;;;;5034297;28;20204;-85
2022/10/21 07:56:52;;;;;;;6.10;5.23;;;17.00;74.30;17.50;96080.00;;;;5034439;28;20221;-85
2022/10/21 07:59:21;;;;;;;7.97;5.50;;;17.00;74.30;17.60;96080.00;;;;5034545;28;20228;-85
2022/10/21 08:01:49;;;;;;;5.80;5.27;;;17.10;74.40;17.60;96080.00;;;;5034105;28;20236;-85
2022/10/21 08:04:23;;;;;;;5.90;5.40;;;17.10;74.30;17.60;96064.00;;;;5034340;28;20239;-85
2022/10/21 08:06:52;;;;;;;8.40;5.37;;;17.20;74.30;17.70;96078.00;;;;5033940;28;20209;-84
2022/10/21 08:09:25;;;;;;;6.13;5.57;;;17.20;74.10;17.70;96083.00;;;;5013018;28;20209;-87
2022/10/21 08:11:55;;;;;;;8.13;5.43;;;17.20;74.10;17.80;96077.00;;;;5032223;28;20736;-86
2022/10/21 08:14:34;;;;;;;6.43;5.83;;;17.30;74.20;17.90;96075.00;;;;5036294;28;20288;-84
2022/10/21 08:17:01;;;;;;;6.37;5.77;;;17.40;74.30;17.90;96072.00;;;;5036711;28;20284;-84
2022/10/21 08:19:42;;;;;;;5.90;5.30;;;17.40;74.30;18.00;96065.00;;;;5043799;28;20205;-86
2022/10/21 08:22:16;;;;;;;5.90;5.37;;;17.40;74.30;18.00;96073.00;;;;5033534;28;20200;-87
2022/10/21 08:24:48;;;;;;;6.03;4.97;;;17.50;74.30;18.10;96089.00;;;;5035681;28;20285;-85
2022/10/21 08:27:27;;;;;;;5.03;4.63;;;17.50;74.20;18.10;96084.00;;;;5035187;28;20201;-85
2022/10/21 08:30:06;;;;;;;5.27;4.87;;;17.60;74.10;18.20;96080.00;;;;5030238;28;20682;-85
2022/10/21 08:32:33;;;;;;;5.53;4.97;;;17.60;74.10;18.20;96070.00;;;;5031128;28;20224;-85
2022/10/21 08:35:03;;;;;;;5.27;4.53;;;17.70;74.10;18.30;96079.00;;;;5033118;28;20197;-85
2022/10/21 08:37:39;;;;;;;5.43;4.90;;;17.70;74.00;18.30;96075.00;;;;5034400;28;20208;-87
2022/10/21 08:40:10;;;;;;;4.93;4.53;;;17.80;74.10;18.40;96076.00;;;;5030451;28;20209;-84
2022/10/21 08:42:41;;;;;;;6.07;5.50;;;17.80;73.30;18.40;96083.00;;;;5039557;28;20228;-86
2022/10/21 08:45:18;;;;;;;5.63;5.13;;;17.90;73.90;18.50;96072.00;;;;5029468;28;20259;-86
2022/10/21 08:47:53;;;;;;;5.33;4.83;;;17.90;73.70;18.50;96075.00;;;;5034568;28;20197;-84
2022/10/21 08:50:24;;;;;;;5.00;4.60;;;18.00;73.60;18.50;96073.00;;;;5036111;28;20212;-85
2022/10/21 08:53:06;;;;;;;6.40;4.87;;;18.00;73.50;18.60;96070.00;;;;5027792;28;20271;-84
2022/10/21 08:55:36;;;;;;;6.40;4.80;;;18.10;73.50;18.60;96082.00;;;;5033217;28;20201;-85
2022/10/21 08:58:05;;;;;;;5.57;4.80;;;18.10;73.40;18.60;96078.00;;;;5034251;28;20229;-84
2022/10/21 09:00:45;;;;;;;6.73;5.20;;;18.10;73.20;18.70;96077.00;;;;5036000;28;20240;-85
2022/10/21 09:03:24;;;;;;;5.10;4.70;;;18.20;73.00;18.70;96069.00;;;;5026755;28;20260;-84
2022/10/21 09:06:22;;;;;;;6.03;4.87;;;18.20;73.00;18.70;96078.00;;;;5032882;28;20304;-84
2022/10/21 09:09:09;;;;;;;5.20;4.80;;;18.30;73.20;18.80;96085.00;;;;5031854;28;20237;-84
2022/10/21 09:11:52;;;;;;;5.10;4.70;;;18.30;73.20;18.80;96087.00;;;;5030470;28;20208;-84
2022/10/21 09:15:14;;;;;;;5.13;4.67;;;18.30;73.20;18.80;96088.00;;;;5027988;28;20647;-84
2022/10/21 09:18:21;;;;;;;4.83;4.43;;;18.40;73.20;18.90;96089.00;;;;5035403;28;20220;-85
2022/10/21 09:21:07;;;;;;;4.90;4.50;;;18.40;72.90;18.90;96092.00;;;;5032135;28;20194;-84
2022/10/21 09:24:02;;;;;;;5.03;4.53;;;18.40;72.60;18.90;96095.00;;;;5034908;28;20694;-84
2022/10/21 09:26:44;;;;;;;7.27;4.80;;;18.40;72.70;18.90;96098.00;;;;5034995;28;20323;-84
2022/10/21 09:29:25;;;;;;;5.40;4.83;;;18.40;72.70;18.90;96107.00;;;;5030826;28;20221;-84
2022/10/21 09:31:55;;;;;;;5.30;4.70;;;18.50;72.80;18.90;96103.00;;;;5033743;28;20233;-84
2022/10/21 09:34:39;;;;;;;5.40;4.90;;;18.40;72.60;18.90;96105.00;;;;5031758;28;20285;-84
2022/10/21 09:37:16;;;;;;;5.67;4.73;;;18.50;72.30;18.90;96111.00;;;;5029671;28;20189;-84
2022/10/21 09:39:51;;;;;;;5.27;4.77;;;18.50;72.40;18.90;96124.00;;;;5031417;28;20674;-85
2022/10/21 09:42:20;;;;;;;4.80;4.40;;;18.50;72.50;18.90;96133.00;;;;5032668;28;20212;-85
2022/10/21 09:44:50;;;;;;;4.83;4.43;;;18.50;72.50;18.90;96146.00;;;;5025901;28;20201;-84
2022/10/21 09:47:24;;;;;;;5.30;4.80;;;18.50;72.30;18.90;96152.00;;;;5034194;28;20204;-84
2022/10/21 09:49:58;;;;;;;4.80;4.30;;;18.50;72.10;18.90;96153.00;;;;5033252;28;20199;-84
2022/10/21 09:52:43;;;;;;;4.77;4.37;;;18.50;72.00;18.90;96156.00;;;;5035717;28;20253;-84
2022/10/21 09:55:19;;;;;;;4.87;4.47;;;18.50;72.10;18.90;96143.00;;;;5031209;28;20220;-86
2022/10/21 09:57:58;;;;;;;7.07;4.73;;;18.50;72.00;18.90;96140.00;;;;5030740;28;20260;-85
2022/10/21 10:00:47;;;;;;;5.50;5.00;;;18.50;71.80;18.80;96140.00;;;;5031078;28;20288;-85
2022/10/21 10:03:34;;;;;;;6.93;4.57;;;18.50;71.60;18.80;96147.00;;;;5030003;28;20225;-85
2022/10/21 10:06:04;;;;;;;5.17;4.77;;;18.50;71.50;18.70;96156.00;;;;5033392;28;20196;-84
2022/10/21 10:08:40;;;;;;;5.37;4.67;;;18.40;71.40;18.70;96175.00;;;;5036962;28;20220;-86
2022/10/21 10:11:21;;;;;;;5.17;4.50;;;18.40;71.50;18.70;96196.00;;;;5031630;28;20279;-85
2022/10/21 10:13:52;;;;;;;4.87;4.47;;;18.40;71.70;18.70;96198.00;;;;5031392;28;20249;-84
2022/10/21 10:16:25;;;;;;;5.53;4.53;;;18.40;71.80;18.80;96208.00;;;;5034193;28;20200;-85
2022/10/21 10:19:11;;;;;;;4.43;4.03;;;18.40;72.00;18.80;96214.00;;;;5029202;28;20200;-84
2022/10/21 10:21:38;;;;;;;5.20;4.37;;;18.40;72.20;18.80;96216.00;;;;5031855;28;20232;-84
2022/10/21 10:24:06;;;;;;;7.43;4.90;;;18.40;72.30;18.90;96222.00;;;;5034378;28;20236;-86
2022/10/21 10:26:41;;;;;;;5.10;4.27;;;18.50;72.50;19.00;96234.00;;;;5031788;28;20285;-84
2022/10/21 10:29:21;;;;;;;5.90;4.40;;;18.50;72.80;19.00;96220.00;;;;5031394;28;20208;-85
2022/10/21 10:31:54;;;;;;;4.67;4.30;;;18.50;72.50;19.10;96237.00;;;;5040955;28;20197;-84
2022/10/21 10:34:34;;;;;;;4.57;4.17;;;18.60;72.30;19.10;96234.00;;;;5032575;28;20225;-85
2022/10/21 10:37:08;;;;;;;4.60;4.20;;;18.60;72.30;19.20;96240.00;;;;5059630;22;20224;-84
2022/10/21 10:39:42;;;;;;;4.70;4.30;;;18.60;72.20;19.20;96245.00;;;;5054975;28;20204;-85
2022/10/21 10:42:30;;;;;;;7.37;4.27;;;18.70;72.10;19.20;96243.00;;;;5055680;28;20289;-84
2022/10/21 10:45:01;;;;;;;5.07;4.53;;;18.70;72.00;19.20;96251.00;;;;5044090;28;20273;-84
2022/10/21 10:47:35;;;;;;;5.50;4.27;;;18.70;72.10;19.30;96249.00;;;;5043456;28;20707;-84
2022/10/21 10:50:02;;;;;;;4.20;3.83;;;18.80;72.10;19.30;96250.00;;;;5044072;28;20297;-84
2022/10/21 10:52:29;;;;;;;4.33;3.97;;;18.80;72.00;19.30;96255.00;;;;5041472;28;20571;-84
2022/10/21 10:55:18;;;;;;;5.00;3.97;;;18.80;71.90;19.30;96244.00;;;;5042309;28;20284;-84
2022/10/21 10:57:53;;;;;;;4.53;4.13;;;18.90;71.90;19.30;96240.00;;;;5055547;28;20255;-84
2022/10/21 11:00:23;;;;;;;6.27;4.50;;;18.90;71.90;19.40;96220.00;;;;5052704;28;20292;-84
2022/10/21 11:03:00;;;;;;;5.13;4.43;;;18.90;71.90;19.40;96227.00;;;;5046721;28;20280;-84
2022/10/21 11:05:35;;;;;;;4.00;3.70;;;18.90;71.90;19.40;96217.00;;;;5036582;28;20260;-85
2022/10/21 11:08:11;;;;;;;5.90;3.80;;;18.90;72.10;19.50;96216.00;;;;5041686;28;20193;-84
2022/10/21 11:10:45;;;;;;;4.13;3.50;;;19.00;72.30;19.50;96211.00;;;;5035260;28;20216;-84
2022/10/21 11:13:18;;;;;;;3.67;3.33;;;19.00;72.40;19.60;96215.00;;;;5042180;28;20674;-84
2022/10/21 11:16:11;;;;;;;4.40;3.93;;;19.00;72.60;19.70;96217.00;;;;5035473;28;20210;-84